sensor_id;sensor_type;location;lat;lon;timestamp;temperature;humidity
10030;DHT22;5055;52.054;8.524;2022-08-19T00:01:56;18.90;97.00
10030;DHT22;5055;52.054;8.524;2022-08-19T00:04:34;18.90;97.00
10030;DHT22;5055;52.054;8.524;2022-08-19T00:07:05;18.80;97.00
10030;DHT22;5055;52.054;8.524;2022-08-19T00:09:34;18.80;97.00
10030;DHT22;5055;52.054;8.524;2022-08-19T00:12:03;18.70;97.00
10030;DHT22;5055;52.054;8.524;2022-08-19T00:14:33;18.70;97.00
10030;DHT22;5055;52.054;8.524;2022-08-19T00:17:01;18.70;97.00
10030;DHT22;5055;52.054;8.524;2022-08-19T00:19:31;18.60;97.00
10030;DHT22;5055;52.054;8.524;2022-08-19T00:22:02;18.60;97.00
10030;DHT22;5055;52.054;8.524;2022-08-19T00:24:32;18.50;97.00
10030;DHT22;5055;52.054;8.524;2022-08-19T00:27:01;18.50;97.00
10030;DHT22;5055;52.054;8.524;2022-08-19T00:29:53;18.50;97.00
10030;DHT22;5055;52.054;8.524;2022-08-19T00:32:22;18.40;97.00
10030;DHT22;5055;52.054;8.524;2022-08-19T00:34:53;18.40;97.00
10030;DHT22;5055;52.054;8.524;2022-08-19T00:37:22;18.30;97.00
10030;DHT22;5055;52.054;8.524;2022-08-19T00:39:53;18.30;97.00
10030;DHT22;5055;52.054;8.524;2022-08-19T00:42:23;18.30;97.00
10030;DHT22;5055;52.054;8.524;2022-08-19T00:44:53;18.20;97.00
10030;DHT22;5055;52.054;8.524;2022-08-19T00:47:21;18.20;97.00
10030;DHT22;5055;52.054;8.524;2022-08-19T00:49:53;18.20;97.00
10030;DHT22;5055;52.054;8.524;2022-08-19T00:52:26;18.10;97.00
10030;DHT22;5055;52.054;8.524;2022-08-19T00:54:57;18.10;97.00
10030;DHT22;5055;52.054;8.524;2022-08-19T00:57:29;18.10;97.00
10030;DHT22;5055;52.054;8.524;2022-08-19T01:00:00;18.00;97.00
10030;DHT22;5055;52.054;8.524;2022-08-19T01:02:30;18.00;97.00
10030;DHT22;5055;52.054;8.524;2022-08-19T01:05:02;17.90;97.00
10030;DHT22;5055;52.054;8.524;2022-08-19T01:07:32;17.90;97.00
10030;DHT22;5055;52.054;8.524;2022-08-19T01:10:06;17.90;97.00
10030;DHT22;5055;52.054;8.524;2022-08-19T01:12:35;17.90;97.00
10030;DHT22;5055;52.054;8.524;2022-08-19T01:15:08;17.80;97.00
10030;DHT22;5055;52.054;8.524;2022-08-19T01:17:39;17.80;97.00
10030;DHT22;5055;52.054;8.524;2022-08-19T01:20:10;17.80;97.00
10030;DHT22;5055;52.054;8.524;2022-08-19T01:22:44;17.80;97.00
10030;DHT22;5055;52.054;8.524;2022-08-19T01:25:14;17.80;97.00
10030;DHT22;5055;52.054;8.524;2022-08-19T01:27:47;17.80;97.00
10030;DHT22;5055;52.054;8.524;2022-08-19T01:30:22;17.80;97.00
10030;DHT22;5055;52.054;8.524;2022-08-19T01:32:53;17.80;97.00
10030;DHT22;5055;52.054;8.524;2022-08-19T01:35:23;17.70;97.00
10030;DHT22;5055;52.054;8.524;2022-08-19T01:37:55;17.70;97.00
10030;DHT22;5055;52.054;8.524;2022-08-19T01:40:26;17.60;97.00
10030;DHT22;5055;52.054;8.524;2022-08-19T01:42:56;17.60;97.00
10030;DHT22;5055;52.054;8.524;2022-08-19T01:45:26;17.60;97.00
10030;DHT22;5055;52.054;8.524;2022-08-19T01:47:55;17.50;97.00
10030;DHT22;5055;52.054;8.524;2022-08-19T01:50:30;17.50;97.00
10030;DHT22;5055;52.054;8.524;2022-08-19T01:53:01;17.50;97.00
10030;DHT22;5055;52.054;8.524;2022-08-19T01:55:35;17.40;97.00
10030;DHT22;5055;52.054;8.524;2022-08-19T01:58:10;17.40;97.00
10030;DHT22;5055;52.054;8.524;2022-08-19T02:00:42;17.30;97.00
10030;DHT22;5055;52.054;8.524;2022-08-19T02:03:12;17.30;97.00
10030;DHT22;5055;52.054;8.524;2022-08-19T02:05:42;17.20;97.00
10030;DHT22;5055;52.054;8.524;2022-08-19T02:08:12;17.20;97.00
10030;DHT22;5055;52.054;8.524;2022-08-19T02:10:42;17.20;97.00
10030;DHT22;5055;52.054;8.524;2022-08-19T02:13:11;17.20;97.00
10030;DHT22;5055;52.054;8.524;2022-08-19T02:15:41;17.10;97.00
10030;DHT22;5055;52.054;8.524;2022-08-19T02:18:10;17.10;97.00
10030;DHT22;5055;52.054;8.524;2022-08-19T02:20:39;17.00;97.00
10030;DHT22;5055;52.054;8.524;2022-08-19T02:23:09;17.00;97.00
10030;DHT22;5055;52.054;8.524;2022-08-19T02:25:45;17.00;97.00
10030;DHT22;5055;52.054;8.524;2022-08-19T02:28:15;17.00;97.00
10030;DHT22;5055;52.054;8.524;2022-08-19T02:30:47;17.00;97.00
10030;DHT22;5055;52.054;8.524;2022-08-19T02:33:16;16.90;97.00
10030;DHT22;5055;52.054;8.524;2022-08-19T02:35:45;16.90;97.00
10030;DHT22;5055;52.054;8.524;2022-08-19T02:38:15;16.90;97.00
10030;DHT22;5055;52.054;8.524;2022-08-19T02:40:59;16.80;97.00
10030;DHT22;5055;52.054;8.524;2022-08-19T02:43:30;16.80;97.00
10030;DHT22;5055;52.054;8.524;2022-08-19T02:46:01;16.80;97.00
10030;DHT22;5055;52.054;8.524;2022-08-19T02:48:29;16.70;97.00
10030;DHT22;5055;52.054;8.524;2022-08-19T02:51:00;16.70;97.00
10030;DHT22;5055;52.054;8.524;2022-08-19T02:53:28;16.70;97.00
10030;DHT22;5055;52.054;8.524;2022-08-19T02:55:58;16.70;97.00
10030;DHT22;5055;52.054;8.524;2022-08-19T02:58:30;16.70;97.00
10030;DHT22;5055;52.054;8.524;2022-08-19T03:00:58;16.70;97.00
10030;DHT22;5055;52.054;8.524;2022-08-19T03:03:27;16.60;97.00
10030;DHT22;5055;52.054;8.524;2022-08-19T03:06:08;16.60;97.00
10030;DHT22;5055;52.054;8.524;2022-08-19T03:08:37;16.60;97.00
10030;DHT22;5055;52.054;8.524;2022-08-19T03:11:12;16.60;97.00
10030;DHT22;5055;52.054;8.524;2022-08-19T03:13:41;16.60;97.00
10030;DHT22;5055;52.054;8.524;2022-08-19T03:16:10;16.50;97.00
10030;DHT22;5055;52.054;8.524;2022-08-19T03:18:39;16.50;97.00
10030;DHT22;5055;52.054;8.524;2022-08-19T03:21:08;16.50;97.00
10030;DHT22;5055;52.054;8.524;2022-08-19T03:23:41;16.50;97.00
10030;DHT22;5055;52.054;8.524;2022-08-19T03:26:14;16.50;97.00
10030;DHT22;5055;52.054;8.524;2022-08-19T03:28:43;16.50;97.00
10030;DHT22;5055;52.054;8.524;2022-08-19T03:31:19;16.50;97.00
10030;DHT22;5055;52.054;8.524;2022-08-19T03:34:09;16.50;97.00
10030;DHT22;5055;52.054;8.524;2022-08-19T03:36:39;16.50;97.00
10030;DHT22;5055;52.054;8.524;2022-08-19T03:39:09;16.50;97.00
10030;DHT22;5055;52.054;8.524;2022-08-19T03:41:41;16.50;97.00
10030;DHT22;5055;52.054;8.524;2022-08-19T03:44:14;16.40;97.00
10030;DHT22;5055;52.054;8.524;2022-08-19T03:46:45;16.40;97.00
10030;DHT22;5055;52.054;8.524;2022-08-19T03:49:15;16.40;97.00
10030;DHT22;5055;52.054;8.524;2022-08-19T03:51:45;16.40;97.00
10030;DHT22;5055;52.054;8.524;2022-08-19T03:54:16;16.40;97.00
10030;DHT22;5055;52.054;8.524;2022-08-19T03:56:49;16.40;97.00
10030;DHT22;5055;52.054;8.524;2022-08-19T03:59:21;16.30;97.00
10030;DHT22;5055;52.054;8.524;2022-08-19T04:01:53;16.30;97.00
10030;DHT22;5055;52.054;8.524;2022-08-19T04:04:22;16.30;97.00
10030;DHT22;5055;52.054;8.524;2022-08-19T04:06:55;16.30;97.00
10030;DHT22;5055;52.054;8.524;2022-08-19T04:09:24;16.20;97.00
10030;DHT22;5055;52.054;8.524;2022-08-19T04:11:56;16.20;97.00
10030;DHT22;5055;52.054;8.524;2022-08-19T04:14:26;16.20;97.00
10030;DHT22;5055;52.054;8.524;2022-08-19T04:16:58;16.20;97.00
10030;DHT22;5055;52.054;8.524;2022-08-19T04:19:29;16.10;97.00
10030;DHT22;5055;52.054;8.524;2022-08-19T04:21:58;16.10;97.00
10030;DHT22;5055;52.054;8.524;2022-08-19T04:24:26;16.10;97.00
10030;DHT22;5055;52.054;8.524;2022-08-19T04:26:58;16.10;97.00
10030;DHT22;5055;52.054;8.524;2022-08-19T04:29:30;16.10;97.00
10030;DHT22;5055;52.054;8.524;2022-08-19T04:31:59;16.10;97.00
10030;DHT22;5055;52.054;8.524;2022-08-19T04:34:35;16.10;97.00
10030;DHT22;5055;52.054;8.524;2022-08-19T04:37:24;16.10;97.00
10030;DHT22;5055;52.054;8.524;2022-08-19T04:40:02;16.10;97.00
10030;DHT22;5055;52.054;8.524;2022-08-19T04:42:50;16.10;97.00
10030;DHT22;5055;52.054;8.524;2022-08-19T04:45:18;16.10;97.00
10030;DHT22;5055;52.054;8.524;2022-08-19T04:47:49;16.10;97.00
10030;DHT22;5055;52.054;8.524;2022-08-19T04:50:25;16.10;97.00
10030;DHT22;5055;52.054;8.524;2022-08-19T04:52:54;16.10;97.00
10030;DHT22;5055;52.054;8.524;2022-08-19T04:55:24;16.10;97.00
10030;DHT22;5055;52.054;8.524;2022-08-19T04:57:55;16.10;97.00
10030;DHT22;5055;52.054;8.524;2022-08-19T05:00:23;16.10;97.00
10030;DHT22;5055;52.054;8.524;2022-08-19T05:02:52;16.10;97.00
10030;DHT22;5055;52.054;8.524;2022-08-19T05:05:20;16.20;97.00
10030;DHT22;5055;52.054;8.524;2022-08-19T05:07:49;16.20;97.00
10030;DHT22;5055;52.054;8.524;2022-08-19T05:10:17;16.30;97.00
10030;DHT22;5055;52.054;8.524;2022-08-19T05:12:46;16.30;97.00
10030;DHT22;5055;52.054;8.524;2022-08-19T05:15:16;16.40;97.00
10030;DHT22;5055;52.054;8.524;2022-08-19T05:17:45;16.50;97.00
10030;DHT22;5055;52.054;8.524;2022-08-19T05:20:28;16.50;97.00
10030;DHT22;5055;52.054;8.524;2022-08-19T05:23:13;16.70;97.00
10030;DHT22;5055;52.054;8.524;2022-08-19T05:25:49;16.80;97.00
10030;DHT22;5055;52.054;8.524;2022-08-19T05:28:19;16.80;97.00
10030;DHT22;5055;52.054;8.524;2022-08-19T05:30:49;17.00;97.00
10030;DHT22;5055;52.054;8.524;2022-08-19T05:33:18;17.20;97.00
10030;DHT22;5055;52.054;8.524;2022-08-19T05:35:46;17.30;97.00
10030;DHT22;5055;52.054;8.524;2022-08-19T05:38:17;17.40;97.00
10030;DHT22;5055;52.054;8.524;2022-08-19T05:40:45;17.40;97.00
10030;DHT22;5055;52.054;8.524;2022-08-19T05:43:16;17.50;97.00
10030;DHT22;5055;52.054;8.524;2022-08-19T05:45:48;17.70;97.00
10030;DHT22;5055;52.054;8.524;2022-08-19T05:48:17;17.80;97.00
10030;DHT22;5055;52.054;8.524;2022-08-19T05:50:47;18.00;97.00
10030;DHT22;5055;52.054;8.524;2022-08-19T05:53:17;18.10;97.00
10030;DHT22;5055;52.054;8.524;2022-08-19T05:55:46;18.10;97.00
10030;DHT22;5055;52.054;8.524;2022-08-19T05:58:14;18.10;97.00
10030;DHT22;5055;52.054;8.524;2022-08-19T06:00:43;18.10;97.00
10030;DHT22;5055;52.054;8.524;2022-08-19T06:03:13;18.10;97.00
10030;DHT22;5055;52.054;8.524;2022-08-19T06:05:42;18.20;97.00
10030;DHT22;5055;52.054;8.524;2022-08-19T06:08:19;18.20;97.00
10030;DHT22;5055;52.054;8.524;2022-08-19T06:11:12;18.30;97.00
10030;DHT22;5055;52.054;8.524;2022-08-19T06:13:41;18.40;97.00
10030;DHT22;5055;52.054;8.524;2022-08-19T06:16:09;18.60;97.00
10030;DHT22;5055;52.054;8.524;2022-08-19T06:18:39;18.80;97.00
10030;DHT22;5055;52.054;8.524;2022-08-19T06:21:08;19.20;97.00
10030;DHT22;5055;52.054;8.524;2022-08-19T06:23:36;19.60;97.00
10030;DHT22;5055;52.054;8.524;2022-08-19T06:26:05;20.10;97.00
10030;DHT22;5055;52.054;8.524;2022-08-19T06:28:34;20.60;97.00
10030;DHT22;5055;52.054;8.524;2022-08-19T06:31:06;21.00;97.00
10030;DHT22;5055;52.054;8.524;2022-08-19T06:33:35;21.30;97.00
10030;DHT22;5055;52.054;8.524;2022-08-19T06:36:06;21.60;97.00
10030;DHT22;5055;52.054;8.524;2022-08-19T06:38:35;22.10;97.00
10030;DHT22;5055;52.054;8.524;2022-08-19T06:41:04;22.40;97.00
10030;DHT22;5055;52.054;8.524;2022-08-19T06:43:33;22.50;97.00
10030;DHT22;5055;52.054;8.524;2022-08-19T06:46:11;22.50;97.00
10030;DHT22;5055;52.054;8.524;2022-08-19T06:48:40;22.60;97.00
10030;DHT22;5055;52.054;8.524;2022-08-19T06:51:13;22.80;97.00
10030;DHT22;5055;52.054;8.524;2022-08-19T06:53:46;22.90;97.00
10030;DHT22;5055;52.054;8.524;2022-08-19T06:56:15;23.40;97.00
10030;DHT22;5055;52.054;8.524;2022-08-19T06:58:44;23.40;97.00
10030;DHT22;5055;52.054;8.524;2022-08-19T07:01:13;23.90;97.00
10030;DHT22;5055;52.054;8.524;2022-08-19T07:03:41;24.30;97.00
10030;DHT22;5055;52.054;8.524;2022-08-19T07:06:14;24.70;97.00
10030;DHT22;5055;52.054;8.524;2022-08-19T07:09:04;24.70;97.00
10030;DHT22;5055;52.054;8.524;2022-08-19T07:11:33;24.50;97.00
10030;DHT22;5055;52.054;8.524;2022-08-19T07:14:02;24.50;97.00
10030;DHT22;5055;52.054;8.524;2022-08-19T07:16:31;24.10;97.00
10030;DHT22;5055;52.054;8.524;2022-08-19T07:18:59;23.80;97.00
10030;DHT22;5055;52.054;8.524;2022-08-19T07:21:43;23.90;97.00
10030;DHT22;5055;52.054;8.524;2022-08-19T07:24:11;24.10;97.00
10030;DHT22;5055;52.054;8.524;2022-08-19T07:26:42;24.30;97.00
10030;DHT22;5055;52.054;8.524;2022-08-19T07:29:11;23.90;97.00
10030;DHT22;5055;52.054;8.524;2022-08-19T07:31:39;23.60;97.00
10030;DHT22;5055;52.054;8.524;2022-08-19T07:34:11;23.60;97.00
10030;DHT22;5055;52.054;8.524;2022-08-19T07:36:43;23.40;97.00
10030;DHT22;5055;52.054;8.524;2022-08-19T07:39:14;23.70;97.00
10030;DHT22;5055;52.054;8.524;2022-08-19T07:41:43;24.20;97.00
10030;DHT22;5055;52.054;8.524;2022-08-19T07:44:13;24.60;97.00
10030;DHT22;5055;52.054;8.524;2022-08-19T07:46:44;25.00;97.00
10030;DHT22;5055;52.054;8.524;2022-08-19T07:49:16;25.10;97.00
10030;DHT22;5055;52.054;8.524;2022-08-19T07:51:49;24.90;97.00
10030;DHT22;5055;52.054;8.524;2022-08-19T07:54:18;25.10;97.00
10030;DHT22;5055;52.054;8.524;2022-08-19T07:56:47;25.50;97.00
10030;DHT22;5055;52.054;8.524;2022-08-19T07:59:19;25.80;97.00
10030;DHT22;5055;52.054;8.524;2022-08-19T08:01:48;26.20;97.00
10030;DHT22;5055;52.054;8.524;2022-08-19T08:04:18;26.00;97.00
10030;DHT22;5055;52.054;8.524;2022-08-19T08:07:06;25.80;97.00
10030;DHT22;5055;52.054;8.524;2022-08-19T08:09:58;26.00;97.00
10030;DHT22;5055;52.054;8.524;2022-08-19T08:12:34;25.80;97.00
10030;DHT22;5055;52.054;8.524;2022-08-19T08:15:08;26.20;97.00
10030;DHT22;5055;52.054;8.524;2022-08-19T08:17:38;26.40;97.00
10030;DHT22;5055;52.054;8.524;2022-08-19T08:20:18;26.10;97.00
10030;DHT22;5055;52.054;8.524;2022-08-19T08:22:48;26.20;97.00
10030;DHT22;5055;52.054;8.524;2022-08-19T08:25:35;26.30;97.00
10030;DHT22;5055;52.054;8.524;2022-08-19T08:28:05;26.30;97.00
10030;DHT22;5055;52.054;8.524;2022-08-19T08:30:43;26.70;97.00
10030;DHT22;5055;52.054;8.524;2022-08-19T08:33:13;27.00;97.00
10030;DHT22;5055;52.054;8.524;2022-08-19T08:35:42;27.40;97.00
10030;DHT22;5055;52.054;8.524;2022-08-19T08:38:14;27.50;97.00
10030;DHT22;5055;52.054;8.524;2022-08-19T08:40:46;27.90;97.00
10030;DHT22;5055;52.054;8.524;2022-08-19T08:43:23;27.70;97.00
10030;DHT22;5055;52.054;8.524;2022-08-19T08:46:03;27.60;97.00
10030;DHT22;5055;52.054;8.524;2022-08-19T08:48:38;27.60;97.00
10030;DHT22;5055;52.054;8.524;2022-08-19T08:51:14;27.80;97.00
10030;DHT22;5055;52.054;8.524;2022-08-19T08:53:50;28.20;97.00
10030;DHT22;5055;52.054;8.524;2022-08-19T08:56:22;28.60;97.00
10030;DHT22;5055;52.054;8.524;2022-08-19T08:58:57;29.10;97.00
10030;DHT22;5055;52.054;8.524;2022-08-19T09:01:26;29.40;97.00
10030;DHT22;5055;52.054;8.524;2022-08-19T09:03:56;29.50;97.00
10030;DHT22;5055;52.054;8.524;2022-08-19T09:06:35;28.80;97.00
10030;DHT22;5055;52.054;8.524;2022-08-19T09:09:14;29.10;97.00
10030;DHT22;5055;52.054;8.524;2022-08-19T09:11:55;29.20;97.00
10030;DHT22;5055;52.054;8.524;2022-08-19T09:14:34;29.40;97.00
10030;DHT22;5055;52.054;8.524;2022-08-19T09:17:18;29.60;97.00
10030;DHT22;5055;52.054;8.524;2022-08-19T09:19:54;29.60;97.00
10030;DHT22;5055;52.054;8.524;2022-08-19T09:22:23;29.80;97.00
10030;DHT22;5055;52.054;8.524;2022-08-19T09:24:55;29.60;97.00
10030;DHT22;5055;52.054;8.524;2022-08-19T09:27:25;29.60;97.00
10030;DHT22;5055;52.054;8.524;2022-08-19T09:30:12;29.80;97.00
10030;DHT22;5055;52.054;8.524;2022-08-19T09:32:42;29.80;97.00
10030;DHT22;5055;52.054;8.524;2022-08-19T09:35:12;29.90;97.00
10030;DHT22;5055;52.054;8.524;2022-08-19T09:37:41;30.10;97.00
10030;DHT22;5055;52.054;8.524;2022-08-19T09:40:12;30.30;97.00
10030;DHT22;5055;52.054;8.524;2022-08-19T09:42:42;30.50;97.00
10030;DHT22;5055;52.054;8.524;2022-08-19T09:45:18;30.70;97.00
10030;DHT22;5055;52.054;8.524;2022-08-19T09:47:49;30.80;97.00
10030;DHT22;5055;52.054;8.524;2022-08-19T09:50:21;30.90;97.00
10030;DHT22;5055;52.054;8.524;2022-08-19T09:52:51;30.70;97.00
10030;DHT22;5055;52.054;8.524;2022-08-19T09:55:25;30.20;97.00
10030;DHT22;5055;52.054;8.524;2022-08-19T09:57:59;30.10;97.00
10030;DHT22;5055;52.054;8.524;2022-08-19T10:00:28;30.30;97.00
10030;DHT22;5055;52.054;8.524;2022-08-19T10:02:57;30.70;97.00
10030;DHT22;5055;52.054;8.524;2022-08-19T10:05:29;30.60;97.00
10030;DHT22;5055;52.054;8.524;2022-08-19T10:08:23;30.40;97.00
10030;DHT22;5055;52.054;8.524;2022-08-19T10:10:55;30.00;97.00
10030;DHT22;5055;52.054;8.524;2022-08-19T10:13:26;30.00;97.00
10030;DHT22;5055;52.054;8.524;2022-08-19T10:16:01;29.70;97.00
10030;DHT22;5055;52.054;8.524;2022-08-19T10:18:30;30.00;97.00
10030;DHT22;5055;52.054;8.524;2022-08-19T10:21:06;30.30;97.00
10030;DHT22;5055;52.054;8.524;2022-08-19T10:23:39;30.10;97.00
10030;DHT22;5055;52.054;8.524;2022-08-19T10:26:15;29.90;97.00
10030;DHT22;5055;52.054;8.524;2022-08-19T10:28:45;30.20;97.00
10030;DHT22;5055;52.054;8.524;2022-08-19T10:31:16;30.40;97.00
10030;DHT22;5055;52.054;8.524;2022-08-19T10:34:06;30.60;97.00
10030;DHT22;5055;52.054;8.524;2022-08-19T10:36:37;30.20;97.00
10030;DHT22;5055;52.054;8.524;2022-08-19T10:39:23;30.20;97.00
10030;DHT22;5055;52.054;8.524;2022-08-19T10:41:58;30.70;97.00
10030;DHT22;5055;52.054;8.524;2022-08-19T10:44:26;30.80;97.00
10030;DHT22;5055;52.054;8.524;2022-08-19T10:46:59;31.10;97.00
10030;DHT22;5055;52.054;8.524;2022-08-19T10:49:27;30.90;97.00
10030;DHT22;5055;52.054;8.524;2022-08-19T10:51:56;31.00;97.00
10030;DHT22;5055;52.054;8.524;2022-08-19T10:54:46;31.30;97.00
10030;DHT22;5055;52.054;8.524;2022-08-19T10:57:36;31.40;97.00
10030;DHT22;5055;52.054;8.524;2022-08-19T11:00:25;31.80;97.00
10030;DHT22;5055;52.054;8.524;2022-08-19T11:02:53;32.20;97.00
10030;DHT22;5055;52.054;8.524;2022-08-19T11:05:22;32.50;97.00
10030;DHT22;5055;52.054;8.524;2022-08-19T11:07:51;32.50;97.00
10030;DHT22;5055;52.054;8.524;2022-08-19T11:10:20;32.70;97.00
10030;DHT22;5055;52.054;8.524;2022-08-19T11:12:51;32.60;97.00
10030;DHT22;5055;52.054;8.524;2022-08-19T11:15:21;32.70;97.00
10030;DHT22;5055;52.054;8.524;2022-08-19T11:17:51;32.80;97.00
10030;DHT22;5055;52.054;8.524;2022-08-19T11:20:21;33.00;97.00
10030;DHT22;5055;52.054;8.524;2022-08-19T11:22:52;32.90;97.00
10030;DHT22;5055;52.054;8.524;2022-08-19T11:25:21;32.60;97.00
10030;DHT22;5055;52.054;8.524;2022-08-19T11:27:51;32.70;97.00
10030;DHT22;5055;52.054;8.524;2022-08-19T11:30:19;32.70;97.00
10030;DHT22;5055;52.054;8.524;2022-08-19T11:32:48;32.60;97.00
10030;DHT22;5055;52.054;8.524;2022-08-19T11:35:16;32.80;97.00
10030;DHT22;5055;52.054;8.524;2022-08-19T11:37:46;32.40;97.00
10030;DHT22;5055;52.054;8.524;2022-08-19T11:40:15;32.20;97.00
10030;DHT22;5055;52.054;8.524;2022-08-19T11:42:44;32.10;97.00
10030;DHT22;5055;52.054;8.524;2022-08-19T11:45:27;31.40;97.00
10030;DHT22;5055;52.054;8.524;2022-08-19T11:47:56;31.40;97.00
10030;DHT22;5055;52.054;8.524;2022-08-19T11:50:25;31.00;97.00
10030;DHT22;5055;52.054;8.524;2022-08-19T11:52:54;31.30;97.00
10030;DHT22;5055;52.054;8.524;2022-08-19T11:55:23;31.20;97.00
10030;DHT22;5055;52.054;8.524;2022-08-19T11:57:52;31.70;97.00
10030;DHT22;5055;52.054;8.524;2022-08-19T12:00:20;32.30;97.00
10030;DHT22;5055;52.054;8.524;2022-08-19T12:02:50;32.40;97.00
10030;DHT22;5055;52.054;8.524;2022-08-19T12:05:19;32.70;97.00
10030;DHT22;5055;52.054;8.524;2022-08-19T12:07:47;33.00;97.00
10030;DHT22;5055;52.054;8.524;2022-08-19T12:10:16;33.30;97.00
10030;DHT22;5055;52.054;8.524;2022-08-19T12:12:52;33.30;97.00
10030;DHT22;5055;52.054;8.524;2022-08-19T12:15:25;33.60;97.00
10030;DHT22;5055;52.054;8.524;2022-08-19T12:18:04;33.50;97.00
10030;DHT22;5055;52.054;8.524;2022-08-19T12:20:35;33.20;97.00
10030;DHT22;5055;52.054;8.524;2022-08-19T12:23:04;33.30;97.00
10030;DHT22;5055;52.054;8.524;2022-08-19T12:25:33;33.50;97.00
10030;DHT22;5055;52.054;8.524;2022-08-19T12:28:02;33.70;97.00
10030;DHT22;5055;52.054;8.524;2022-08-19T12:30:30;33.60;97.00
10030;DHT22;5055;52.054;8.524;2022-08-19T12:32:59;33.70;97.00
10030;DHT22;5055;52.054;8.524;2022-08-19T12:35:29;33.40;97.00
10030;DHT22;5055;52.054;8.524;2022-08-19T12:37:57;33.00;97.00
10030;DHT22;5055;52.054;8.524;2022-08-19T12:40:27;32.60;97.00
10030;DHT22;5055;52.054;8.524;2022-08-19T12:42:55;32.80;97.00
10030;DHT22;5055;52.054;8.524;2022-08-19T12:45:24;32.40;97.00
10030;DHT22;5055;52.054;8.524;2022-08-19T12:47:52;32.40;97.00
10030;DHT22;5055;52.054;8.524;2022-08-19T12:50:21;32.10;97.00
10030;DHT22;5055;52.054;8.524;2022-08-19T12:52:51;31.60;97.00
10030;DHT22;5055;52.054;8.524;2022-08-19T12:55:20;31.80;97.00
10030;DHT22;5055;52.054;8.524;2022-08-19T12:57:49;31.80;97.00
10030;DHT22;5055;52.054;8.524;2022-08-19T13:00:19;32.10;97.00
10030;DHT22;5055;52.054;8.524;2022-08-19T13:02:50;32.30;97.00
10030;DHT22;5055;52.054;8.524;2022-08-19T13:05:25;32.50;97.00
10030;DHT22;5055;52.054;8.524;2022-08-19T13:07:57;33.00;97.00
10030;DHT22;5055;52.054;8.524;2022-08-19T13:10:28;33.50;97.00
10030;DHT22;5055;52.054;8.524;2022-08-19T13:12:58;33.90;97.00
10030;DHT22;5055;52.054;8.524;2022-08-19T13:15:29;34.10;97.00
10030;DHT22;5055;52.054;8.524;2022-08-19T13:17:58;34.30;97.00
10030;DHT22;5055;52.054;8.524;2022-08-19T13:20:27;34.20;97.00
10030;DHT22;5055;52.054;8.524;2022-08-19T13:22:57;34.20;97.00
10030;DHT22;5055;52.054;8.524;2022-08-19T13:25:26;34.40;97.00
10030;DHT22;5055;52.054;8.524;2022-08-19T13:27:55;34.10;97.00
10030;DHT22;5055;52.054;8.524;2022-08-19T13:30:24;34.40;97.00
10030;DHT22;5055;52.054;8.524;2022-08-19T13:33:10;34.00;97.00
10030;DHT22;5055;52.054;8.524;2022-08-19T13:35:44;34.20;97.00
10030;DHT22;5055;52.054;8.524;2022-08-19T13:38:16;34.40;97.00
10030;DHT22;5055;52.054;8.524;2022-08-19T13:40:45;34.40;97.00
10030;DHT22;5055;52.054;8.524;2022-08-19T13:43:14;34.40;97.00
10030;DHT22;5055;52.054;8.524;2022-08-19T13:45:50;34.30;97.00
10030;DHT22;5055;52.054;8.524;2022-08-19T13:48:23;34.40;97.00
10030;DHT22;5055;52.054;8.524;2022-08-19T13:50:52;34.60;97.00
10030;DHT22;5055;52.054;8.524;2022-08-19T13:53:23;34.90;97.00
10030;DHT22;5055;52.054;8.524;2022-08-19T13:55:52;35.20;97.00
10030;DHT22;5055;52.054;8.524;2022-08-19T13:58:21;35.20;97.00
10030;DHT22;5055;52.054;8.524;2022-08-19T14:00:50;35.20;97.00
10030;DHT22;5055;52.054;8.524;2022-08-19T14:03:19;35.00;97.00
10030;DHT22;5055;52.054;8.524;2022-08-19T14:05:47;34.40;97.00
10030;DHT22;5055;52.054;8.524;2022-08-19T14:08:16;34.20;97.00
10030;DHT22;5055;52.054;8.524;2022-08-19T14:10:47;33.80;97.00
10030;DHT22;5055;52.054;8.524;2022-08-19T14:13:18;33.10;97.00
10030;DHT22;5055;52.054;8.524;2022-08-19T14:15:47;32.80;97.00
10030;DHT22;5055;52.054;8.524;2022-08-19T14:18:16;33.50;97.00
10030;DHT22;5055;52.054;8.524;2022-08-19T14:20:46;33.50;97.00
10030;DHT22;5055;52.054;8.524;2022-08-19T14:23:14;33.70;97.00
10030;DHT22;5055;52.054;8.524;2022-08-19T14:25:43;33.30;97.00
10030;DHT22;5055;52.054;8.524;2022-08-19T14:28:15;33.20;97.00
10030;DHT22;5055;52.054;8.524;2022-08-19T14:30:43;33.90;97.00
10030;DHT22;5055;52.054;8.524;2022-08-19T14:33:12;34.70;97.00
10030;DHT22;5055;52.054;8.524;2022-08-19T14:35:41;35.30;97.00
10030;DHT22;5055;52.054;8.524;2022-08-19T14:38:16;35.50;97.00
10030;DHT22;5055;52.054;8.524;2022-08-19T14:40:54;34.80;97.00
10030;DHT22;5055;52.054;8.524;2022-08-19T14:43:25;33.70;97.00
10030;DHT22;5055;52.054;8.524;2022-08-19T14:45:54;33.90;97.00
10030;DHT22;5055;52.054;8.524;2022-08-19T14:48:24;33.20;97.00
10030;DHT22;5055;52.054;8.524;2022-08-19T14:50:55;33.20;97.00
10030;DHT22;5055;52.054;8.524;2022-08-19T14:53:23;32.30;97.00
10030;DHT22;5055;52.054;8.524;2022-08-19T14:55:52;32.00;97.00
10030;DHT22;5055;52.054;8.524;2022-08-19T14:58:22;31.90;97.00
10030;DHT22;5055;52.054;8.524;2022-08-19T15:00:59;31.90;97.00
10030;DHT22;5055;52.054;8.524;2022-08-19T15:03:29;31.70;97.00
10030;DHT22;5055;52.054;8.524;2022-08-19T15:06:00;31.40;97.00
10030;DHT22;5055;52.054;8.524;2022-08-19T15:08:32;31.60;97.00
10030;DHT22;5055;52.054;8.524;2022-08-19T15:11:06;31.80;97.00
10030;DHT22;5055;52.054;8.524;2022-08-19T15:13:38;32.20;97.00
10030;DHT22;5055;52.054;8.524;2022-08-19T15:16:10;32.90;97.00
10030;DHT22;5055;52.054;8.524;2022-08-19T15:18:46;33.50;97.00
10030;DHT22;5055;52.054;8.524;2022-08-19T15:21:17;33.90;97.00
10030;DHT22;5055;52.054;8.524;2022-08-19T15:23:54;33.60;97.00
10030;DHT22;5055;52.054;8.524;2022-08-19T15:26:24;33.40;97.00
10030;DHT22;5055;52.054;8.524;2022-08-19T15:28:54;33.70;97.00
10030;DHT22;5055;52.054;8.524;2022-08-19T15:31:26;33.50;97.00
10030;DHT22;5055;52.054;8.524;2022-08-19T15:33:56;33.40;97.00
10030;DHT22;5055;52.054;8.524;2022-08-19T15:36:26;33.70;97.00
10030;DHT22;5055;52.054;8.524;2022-08-19T15:38:55;33.10;97.00
10030;DHT22;5055;52.054;8.524;2022-08-19T15:41:28;32.80;97.00
10030;DHT22;5055;52.054;8.524;2022-08-19T15:43:59;32.20;97.00
10030;DHT22;5055;52.054;8.524;2022-08-19T15:46:32;32.20;97.00
10030;DHT22;5055;52.054;8.524;2022-08-19T15:49:02;32.10;97.00
10030;DHT22;5055;52.054;8.524;2022-08-19T15:51:33;31.70;97.00
10030;DHT22;5055;52.054;8.524;2022-08-19T15:54:06;31.90;97.00
10030;DHT22;5055;52.054;8.524;2022-08-19T15:56:37;31.60;97.00
10030;DHT22;5055;52.054;8.524;2022-08-19T15:59:25;31.40;97.00
10030;DHT22;5055;52.054;8.524;2022-08-19T16:02:16;30.60;97.00
10030;DHT22;5055;52.054;8.524;2022-08-19T16:05:06;30.30;97.00
10030;DHT22;5055;52.054;8.524;2022-08-19T16:07:52;29.80;97.00
10030;DHT22;5055;52.054;8.524;2022-08-19T16:10:21;29.60;97.00
10030;DHT22;5055;52.054;8.524;2022-08-19T16:12:54;29.30;97.00
10030;DHT22;5055;52.054;8.524;2022-08-19T16:15:23;29.20;97.00